createdAt,value
2018-04-30T00:00:06.696Z,99.90
2018-04-30T00:02:38.455Z,99.90
2018-04-30T00:05:06.874Z,99.90
2018-04-30T00:07:36.057Z,99.90
2018-04-30T00:10:04.548Z,99.90
2018-04-30T00:12:32.978Z,99.90
2018-04-30T00:15:01.387Z,99.90
2018-04-30T00:17:29.863Z,99.90
2018-04-30T00:19:58.219Z,99.90
2018-04-30T00:22:27.393Z,99.90
2018-04-30T00:24:56.723Z,99.90
2018-04-30T00:27:25.872Z,99.90
2018-04-30T00:29:55.943Z,99.90
2018-04-30T00:32:24.359Z,99.90
2018-04-30T00:34:52.933Z,99.90
2018-04-30T00:37:21.295Z,99.90
2018-04-30T00:39:49.707Z,99.90
2018-04-30T00:42:18.067Z,99.90
2018-04-30T00:44:46.613Z,99.90
2018-04-30T00:47:15.057Z,99.90
2018-04-30T00:49:43.436Z,99.90
2018-04-30T00:52:11.810Z,99.90
2018-04-30T00:54:52.015Z,99.90
2018-04-30T00:57:20.387Z,99.90
2018-04-30T00:59:48.778Z,99.90
2018-04-30T01:02:17.187Z,99.90
2018-04-30T01:04:45.763Z,99.90
2018-04-30T01:07:15.106Z,99.90
2018-04-30T01:09:43.557Z,99.90
2018-04-30T01:12:13.592Z,99.90
2018-04-30T01:14:42.035Z,99.90
2018-04-30T01:17:10.451Z,99.90
2018-04-30T01:19:38.879Z,99.90
2018-04-30T01:22:08.076Z,99.90
2018-04-30T01:24:36.454Z,99.90
2018-04-30T01:27:05.032Z,99.90
2018-04-30T01:29:34.956Z,99.90
2018-04-30T01:32:03.499Z,99.90
2018-04-30T01:34:32.631Z,99.90
2018-04-30T01:37:02.139Z,99.90
2018-04-30T01:39:31.443Z,99.90
2018-04-30T01:42:00.775Z,99.90
2018-04-30T01:44:29.943Z,99.90
2018-04-30T01:46:59.282Z,99.90
2018-04-30T01:49:27.927Z,99.90
2018-04-30T01:51:57.260Z,99.90
2018-04-30T01:54:25.664Z,99.90
2018-04-30T01:56:54.043Z,99.90
2018-04-30T01:59:25.071Z,99.90
2018-04-30T02:01:53.448Z,99.90
2018-04-30T02:04:21.826Z,99.90
2018-04-30T02:06:50.212Z,99.90
2018-04-30T02:09:18.791Z,99.90
2018-04-30T02:11:47.187Z,99.90
2018-04-30T02:14:15.559Z,99.90
2018-04-30T02:16:43.971Z,99.90
2018-04-30T02:19:12.341Z,99.90
2018-04-30T02:21:41.143Z,99.90
2018-04-30T02:24:09.527Z,99.90
2018-04-30T02:26:38.099Z,99.90
2018-04-30T02:29:07.415Z,99.90
2018-04-30T02:31:35.799Z,99.90
2018-04-30T02:34:04.236Z,99.90
2018-04-30T02:36:32.792Z,99.90
2018-04-30T02:39:02.095Z,99.90
2018-04-30T02:41:30.676Z,99.90
2018-04-30T02:43:59.077Z,99.90
2018-04-30T02:46:27.616Z,99.90
2018-04-30T02:48:56.952Z,99.90
2018-04-30T02:51:25.338Z,99.90
2018-04-30T02:53:53.696Z,99.90
2018-04-30T02:56:22.081Z,99.90
2018-04-30T02:58:50.448Z,99.90
2018-04-30T03:01:18.867Z,99.90
2018-04-30T03:03:47.231Z,99.90
2018-04-30T03:06:15.766Z,99.90
2018-04-30T03:08:44.335Z,99.90
2018-04-30T03:11:13.655Z,99.90
2018-04-30T03:13:42.204Z,99.90
2018-04-30T03:16:10.631Z,99.90
2018-04-30T03:18:39.919Z,99.90
2018-04-30T03:21:08.463Z,99.90
2018-04-30T03:23:36.879Z,99.90
2018-04-30T03:26:05.423Z,99.90
2018-04-30T03:28:33.846Z,99.90
2018-04-30T03:31:02.270Z,99.90
2018-04-30T03:33:31.447Z,99.90
2018-04-30T03:35:59.923Z,99.90
2018-04-30T03:38:28.315Z,99.90
2018-04-30T03:40:56.679Z,99.90
2018-04-30T03:43:26.537Z,99.90
2018-04-30T03:45:54.913Z,99.90
2018-04-30T03:48:23.281Z,99.90
2018-04-30T03:50:51.841Z,99.90
2018-04-30T03:53:20.235Z,99.90
2018-04-30T03:55:48.807Z,99.90
2018-04-30T03:58:18.165Z,99.90
2018-04-30T04:00:58.422Z,99.90
2018-04-30T04:03:39.088Z,99.90
2018-04-30T04:09:08.267Z,99.90
2018-04-30T04:11:36.688Z,99.90
2018-04-30T04:14:05.141Z,99.90
2018-04-30T04:16:33.517Z,99.90
2018-04-30T04:19:01.944Z,99.90
2018-04-30T04:21:30.507Z,99.90
2018-04-30T04:23:59.075Z,99.90
2018-04-30T04:26:28.260Z,99.90
2018-04-30T04:28:56.647Z,99.90
2018-04-30T04:31:25.211Z,99.90
2018-04-30T04:33:54.051Z,99.90
2018-04-30T04:36:22.447Z,99.90
2018-04-30T04:38:50.831Z,99.90
2018-04-30T04:41:19.376Z,99.90
2018-04-30T04:43:48.718Z,99.90
2018-04-30T04:46:17.295Z,99.90
2018-04-30T04:48:45.734Z,99.90
2018-04-30T04:51:14.959Z,99.90
2018-04-30T04:53:43.447Z,99.90
2018-04-30T04:56:14.931Z,99.90
2018-04-30T04:58:43.499Z,99.90
2018-04-30T05:01:12.107Z,99.90
2018-04-30T05:03:41.623Z,99.90
2018-04-30T05:06:10.161Z,99.90
2018-04-30T05:08:38.540Z,99.90
2018-04-30T05:11:06.963Z,99.90
2018-04-30T05:13:35.572Z,99.90
2018-04-30T05:16:05.445Z,99.90
2018-04-30T05:18:34.369Z,99.90
2018-04-30T05:21:02.752Z,99.90
2018-04-30T05:23:31.330Z,99.90
2018-04-30T05:25:59.958Z,99.90
2018-04-30T05:28:28.339Z,99.90
2018-04-30T05:30:56.763Z,99.90
2018-04-30T05:33:25.215Z,99.90
2018-04-30T05:35:53.687Z,99.90
2018-04-30T05:38:22.059Z,99.90
2018-04-30T05:40:51.047Z,99.90
2018-04-30T05:43:19.423Z,99.90
2018-04-30T05:45:47.900Z,99.90
2018-04-30T05:48:16.307Z,99.90
2018-04-30T05:50:44.880Z,99.90
2018-04-30T05:53:13.284Z,99.90
2018-04-30T05:55:41.851Z,99.90
2018-04-30T05:58:11.135Z,99.90
2018-04-30T06:00:39.740Z,99.90
2018-04-30T06:03:08.175Z,99.90
2018-04-30T06:05:36.562Z,99.90
2018-04-30T06:08:04.922Z,99.90
2018-04-30T06:10:34.115Z,99.90
2018-04-30T06:13:02.520Z,99.90
2018-04-30T06:15:31.687Z,99.90
2018-04-30T06:18:00.646Z,99.90
2018-04-30T06:20:29.088Z,99.90
2018-04-30T06:22:57.451Z,99.90
2018-04-30T06:25:26.031Z,99.90
2018-04-30T06:27:54.416Z,99.90
2018-04-30T06:30:22.780Z,99.90
2018-04-30T06:32:51.175Z,99.90
2018-04-30T06:35:19.732Z,99.90
2018-04-30T06:37:48.110Z,99.90
2018-04-30T06:40:16.486Z,99.90
2018-04-30T06:42:44.876Z,99.90
2018-04-30T06:45:13.454Z,99.90
2018-04-30T06:47:41.827Z,99.90
2018-04-30T06:50:10.233Z,99.90
2018-04-30T06:52:38.675Z,99.90
2018-04-30T06:55:08.169Z,99.90
2018-04-30T06:57:36.635Z,99.90
2018-04-30T07:00:05.988Z,99.90
2018-04-30T07:02:34.555Z,99.90
2018-04-30T07:05:03.148Z,99.90
2018-04-30T07:07:31.527Z,99.90
2018-04-30T07:09:59.981Z,99.90
2018-04-30T07:12:28.394Z,99.90
2018-04-30T07:14:56.775Z,99.90
2018-04-30T07:17:25.292Z,99.90
2018-04-30T07:19:53.686Z,99.90
2018-04-30T07:22:22.863Z,99.90
2018-04-30T07:24:51.252Z,99.90
2018-04-30T07:27:19.641Z,99.90
2018-04-30T07:29:48.043Z,99.90
2018-04-30T07:32:16.448Z,99.90
2018-04-30T07:34:46.964Z,99.90
2018-04-30T07:37:15.399Z,99.90
2018-04-30T07:39:43.791Z,99.90
2018-04-30T07:42:12.209Z,99.90
2018-04-30T07:44:40.595Z,99.90
2018-04-30T07:47:09.766Z,99.90
2018-04-30T07:49:38.299Z,99.90
2018-04-30T07:52:06.735Z,99.90
2018-04-30T07:54:35.200Z,99.90
2018-04-30T07:57:03.560Z,99.90
2018-04-30T07:59:32.005Z,99.90
2018-04-30T08:02:00.574Z,97.30
2018-04-30T08:04:29.911Z,96.80
2018-04-30T08:06:58.303Z,96.60
2018-04-30T08:09:26.701Z,98.80
2018-04-30T08:11:55.296Z,98.00
2018-04-30T08:14:25.107Z,99.90
2018-04-30T08:16:53.543Z,99.90
2018-04-30T08:19:22.889Z,98.80
2018-04-30T08:21:52.268Z,98.00
2018-04-30T08:24:21.605Z,98.60
2018-04-30T08:26:50.060Z,98.60
2018-04-30T08:29:19.361Z,99.90
2018-04-30T08:31:47.935Z,99.90
2018-04-30T08:34:16.339Z,99.90
2018-04-30T08:36:45.242Z,99.90
2018-04-30T08:39:14.451Z,99.90
2018-04-30T08:41:42.879Z,99.90
2018-04-30T08:44:11.272Z,99.90
2018-04-30T08:46:39.645Z,99.90
2018-04-30T08:49:08.813Z,99.90
2018-04-30T08:51:37.254Z,99.90
2018-04-30T08:54:05.695Z,99.90
2018-04-30T08:56:34.264Z,99.90
2018-04-30T08:59:03.445Z,99.90
2018-04-30T09:01:32.028Z,99.90
2018-04-30T09:04:00.662Z,99.40
2018-04-30T09:06:29.103Z,99.90
2018-04-30T09:08:57.523Z,99.90
2018-04-30T09:11:26.803Z,99.90
2018-04-30T09:13:55.374Z,99.90
2018-04-30T09:16:24.784Z,99.90
2018-04-30T09:18:53.335Z,99.90
2018-04-30T09:21:22.475Z,99.90
2018-04-30T09:23:50.870Z,99.90
2018-04-30T09:26:19.464Z,99.90
2018-04-30T09:28:47.823Z,99.90
2018-04-30T09:31:16.263Z,99.90
2018-04-30T09:33:44.678Z,99.90
2018-04-30T09:36:13.072Z,99.90
2018-04-30T09:38:41.488Z,99.90
2018-04-30T09:41:09.866Z,99.90
2018-04-30T09:43:38.286Z,99.90
2018-04-30T09:46:06.831Z,99.90
2018-04-30T09:48:35.207Z,99.90
2018-04-30T09:51:03.619Z,99.90
2018-04-30T09:53:31.985Z,99.90
2018-04-30T09:56:01.203Z,99.90
2018-04-30T09:58:29.575Z,99.90
2018-04-30T10:00:57.981Z,99.90
2018-04-30T10:03:26.416Z,99.90
2018-04-30T10:05:54.821Z,99.90
2018-04-30T10:08:23.201Z,99.90
2018-04-30T10:10:51.805Z,99.90
2018-04-30T10:13:20.206Z,99.90
2018-04-30T10:15:48.655Z,99.90
2018-04-30T10:18:17.166Z,99.90
2018-04-30T10:20:45.555Z,99.90
2018-04-30T10:23:13.921Z,99.90
2018-04-30T10:25:42.484Z,99.90
2018-04-30T10:28:11.800Z,99.90
2018-04-30T10:30:45.454Z,99.90
2018-04-30T10:33:13.905Z,99.90
2018-04-30T10:35:42.336Z,99.90
2018-04-30T10:38:11.470Z,99.90
2018-04-30T10:40:39.899Z,99.90
2018-04-30T10:43:08.294Z,99.90
2018-04-30T10:45:36.830Z,99.90
2018-04-30T10:48:05.411Z,99.90
2018-04-30T10:50:33.802Z,99.90
2018-04-30T10:53:02.234Z,99.90
2018-04-30T10:55:30.799Z,99.90
2018-04-30T10:58:00.850Z,99.90
2018-04-30T11:00:30.009Z,99.90
2018-04-30T11:02:58.399Z,99.90
2018-04-30T11:05:26.970Z,99.90
2018-04-30T11:07:55.395Z,99.90
2018-04-30T11:10:23.770Z,99.90
2018-04-30T11:12:52.199Z,99.90
2018-04-30T11:15:20.585Z,99.90
2018-04-30T11:17:49.887Z,99.90
2018-04-30T11:20:19.043Z,99.90
2018-04-30T11:22:47.484Z,99.90
2018-04-30T11:25:15.857Z,99.90
2018-04-30T11:27:44.555Z,99.90
2018-04-30T11:30:13.165Z,99.90
2018-04-30T11:32:41.680Z,99.90
2018-04-30T11:35:10.054Z,99.90
2018-04-30T11:37:39.847Z,99.90
2018-04-30T11:40:08.267Z,99.90
2018-04-30T11:42:36.669Z,99.90
2018-04-30T11:45:05.116Z,99.90
2018-04-30T11:47:33.736Z,99.90
2018-04-30T11:50:02.913Z,99.90
2018-04-30T11:52:31.329Z,99.90
2018-04-30T11:54:59.736Z,99.90
2018-04-30T11:57:28.167Z,99.90
2018-04-30T11:59:56.552Z,99.90
2018-04-30T12:02:25.008Z,99.90
2018-04-30T12:04:54.345Z,99.90
2018-04-30T12:07:23.518Z,99.90
2018-04-30T12:09:51.911Z,99.90
2018-04-30T12:12:20.344Z,99.90
2018-04-30T12:14:48.755Z,99.90
2018-04-30T12:17:17.183Z,99.90
2018-04-30T12:19:45.631Z,99.90
2018-04-30T12:22:14.081Z,99.90
2018-04-30T12:24:42.432Z,99.90
2018-04-30T12:27:11.649Z,99.90
2018-04-30T12:29:40.076Z,99.90
2018-04-30T12:32:09.231Z,99.90
2018-04-30T12:34:38.587Z,99.90
2018-04-30T12:37:07.732Z,99.90
2018-04-30T12:39:37.251Z,99.90
2018-04-30T12:42:05.732Z,99.90
2018-04-30T12:44:34.311Z,99.90
2018-04-30T12:47:02.959Z,99.90
2018-04-30T12:49:31.377Z,99.90
2018-04-30T12:51:59.741Z,99.90
2018-04-30T12:54:28.337Z,99.90
2018-04-30T12:56:56.892Z,99.90
2018-04-30T12:59:26.035Z,99.90
2018-04-30T13:01:54.459Z,99.90
2018-04-30T13:04:22.908Z,99.90
2018-04-30T13:06:53.422Z,99.90
2018-04-30T13:09:21.782Z,99.90
2018-04-30T13:11:50.207Z,99.90
2018-04-30T13:14:19.576Z,99.90
2018-04-30T13:16:48.171Z,99.90
2018-04-30T13:19:17.915Z,99.90
2018-04-30T13:21:46.491Z,99.90
2018-04-30T13:24:15.027Z,99.90
2018-04-30T13:26:43.412Z,99.90
2018-04-30T13:29:11.871Z,99.90
2018-04-30T13:31:40.416Z,99.90
2018-04-30T13:34:09.605Z,99.90
2018-04-30T13:36:38.033Z,99.90
2018-04-30T13:39:06.419Z,99.90
2018-04-30T13:41:34.869Z,99.90
2018-04-30T13:44:03.330Z,99.90
2018-04-30T13:46:31.894Z,99.90
2018-04-30T13:49:00.375Z,99.90
2018-04-30T13:51:28.796Z,99.90
2018-04-30T13:53:57.196Z,99.90
2018-04-30T13:56:25.768Z,99.90
2018-04-30T13:58:54.235Z,99.90
2018-04-30T14:01:22.645Z,99.90
2018-04-30T14:03:51.035Z,99.90
2018-04-30T14:06:19.467Z,99.90
2018-04-30T14:08:47.855Z,99.90
2018-04-30T14:11:16.355Z,99.90
2018-04-30T14:13:44.762Z,99.90
2018-04-30T14:16:15.285Z,99.90
2018-04-30T14:18:43.742Z,99.90
2018-04-30T14:21:12.126Z,99.90
2018-04-30T14:23:40.519Z,99.90
2018-04-30T14:26:08.940Z,99.90
2018-04-30T14:28:37.312Z,99.90
2018-04-30T14:31:05.712Z,99.90
2018-04-30T14:33:34.128Z,99.90
2018-04-30T14:36:03.476Z,99.90
2018-04-30T14:38:33.576Z,99.90
2018-04-30T14:41:02.117Z,99.90
2018-04-30T14:43:30.547Z,99.90
2018-04-30T14:45:59.095Z,99.90
2018-04-30T14:48:27.475Z,99.90
2018-04-30T14:50:55.902Z,99.90
2018-04-30T14:53:24.283Z,99.90
2018-04-30T14:55:53.003Z,99.90
2018-04-30T14:58:21.369Z,99.90
2018-04-30T15:00:49.757Z,99.90
2018-04-30T15:03:18.139Z,99.90
2018-04-30T15:05:46.519Z,99.90
2018-04-30T15:08:14.911Z,99.90
2018-04-30T15:10:43.307Z,99.90
2018-04-30T15:13:11.696Z,99.90
2018-04-30T15:15:40.863Z,99.90
2018-04-30T15:18:09.310Z,99.90
2018-04-30T15:20:37.860Z,99.90
2018-04-30T15:23:06.231Z,99.90
2018-04-30T15:25:34.832Z,99.90
2018-04-30T15:28:03.249Z,99.90
2018-04-30T15:30:32.384Z,99.90
2018-04-30T15:33:00.763Z,99.90
2018-04-30T15:35:30.271Z,99.90
2018-04-30T15:37:58.663Z,99.90
2018-04-30T15:40:27.041Z,99.90
2018-04-30T15:42:55.427Z,99.90
2018-04-30T15:45:23.839Z,99.90
2018-04-30T15:47:52.267Z,99.90
2018-04-30T15:50:21.391Z,99.90
2018-04-30T15:52:49.755Z,99.90
2018-04-30T15:55:18.168Z,99.90
2018-04-30T15:57:46.717Z,99.90
2018-04-30T16:00:15.127Z,99.90
2018-04-30T16:02:43.501Z,99.90
2018-04-30T16:05:11.895Z,99.90
2018-04-30T16:07:40.259Z,99.90
2018-04-30T16:10:08.807Z,99.90
2018-04-30T16:12:37.195Z,99.90
2018-04-30T16:15:07.247Z,99.90
2018-04-30T16:17:36.388Z,99.90
2018-04-30T16:20:04.801Z,99.90
2018-04-30T16:22:33.227Z,99.90
2018-04-30T16:25:02.364Z,99.90
2018-04-30T16:27:30.810Z,99.90
2018-04-30T16:29:59.215Z,99.90
2018-04-30T16:32:28.596Z,99.90
2018-04-30T16:34:57.729Z,99.90
2018-04-30T16:37:27.214Z,99.90
2018-04-30T16:39:55.615Z,99.90
2018-04-30T16:42:23.987Z,99.90
2018-04-30T16:44:52.371Z,99.90
2018-04-30T16:47:21.080Z,99.90
2018-04-30T16:49:50.287Z,99.90
2018-04-30T16:52:18.827Z,99.90
2018-04-30T16:54:47.394Z,99.90
2018-04-30T16:57:16.551Z,99.90
2018-04-30T16:59:44.962Z,99.90
2018-04-30T17:02:13.546Z,99.90
2018-04-30T17:04:41.956Z,99.90
2018-04-30T17:07:10.499Z,99.90
2018-04-30T17:09:38.907Z,99.90
2018-04-30T17:12:07.265Z,99.90
2018-04-30T17:14:35.626Z,99.90
2018-04-30T17:17:04.243Z,99.90
2018-04-30T17:19:33.551Z,99.90
